createdAt,value
2017-10-26T00:02:16.236Z,73.99
2017-10-26T00:04:44.372Z,73.49
2017-10-26T00:07:12.158Z,73.62
2017-10-26T00:09:39.814Z,73.71
2017-10-26T00:12:07.428Z,74.07
2017-10-26T00:14:35.043Z,75.05
2017-10-26T00:17:02.728Z,74.91
2017-10-26T00:19:31.174Z,74.31
2017-10-26T00:21:59.265Z,74.05
2017-10-26T00:24:27.099Z,73.85
2017-10-26T00:26:54.651Z,74.35
2017-10-26T00:29:22.599Z,74.22
2017-10-26T00:31:50.389Z,73.98
2017-10-26T00:34:17.967Z,74.45
2017-10-26T00:36:45.563Z,73.22
2017-10-26T00:39:13.239Z,73.65
2017-10-26T00:41:41.010Z,73.65
2017-10-26T00:44:08.601Z,73.61
2017-10-26T00:46:36.328Z,73.53
2017-10-26T00:49:03.923Z,73.64
2017-10-26T00:51:31.709Z,73.25
2017-10-26T00:54:00.016Z,72.87
2017-10-26T00:56:27.590Z,72.90
2017-10-26T00:58:55.169Z,72.95
2017-10-26T01:01:22.800Z,73.22
2017-10-26T01:03:50.589Z,74.20
2017-10-26T01:06:18.115Z,73.72
2017-10-26T01:08:45.681Z,73.41
2017-10-26T01:11:13.469Z,73.28
2017-10-26T01:13:41.139Z,73.43
2017-10-26T01:16:08.771Z,73.51
2017-10-26T01:18:36.558Z,73.01
2017-10-26T01:21:04.101Z,72.74
2017-10-26T01:23:31.841Z,72.60
2017-10-26T01:25:59.394Z,72.90
2017-10-26T01:28:27.094Z,73.28
2017-10-26T01:30:54.763Z,73.54
2017-10-26T01:33:22.335Z,73.24
2017-10-26T01:35:49.965Z,73.45
2017-10-26T01:38:17.594Z,74.02
2017-10-26T01:40:45.125Z,73.99
2017-10-26T01:43:12.921Z,73.63
2017-10-26T01:45:40.526Z,73.82
2017-10-26T01:48:08.142Z,74.25
2017-10-26T01:50:36.369Z,74.02
2017-10-26T01:53:04.066Z,74.74
2017-10-26T01:55:32.060Z,75.04
2017-10-26T01:58:00.258Z,75.13
2017-10-26T02:00:28.298Z,74.56
2017-10-26T02:02:56.110Z,74.66
2017-10-26T02:05:23.958Z,74.70
2017-10-26T02:07:51.579Z,75.08
2017-10-26T02:10:19.688Z,74.89
2017-10-26T02:12:47.328Z,73.76
2017-10-26T02:15:15.005Z,73.24
2017-10-26T02:17:42.879Z,73.61
2017-10-26T02:20:10.492Z,74.57
2017-10-26T02:22:38.086Z,74.74
2017-10-26T02:25:05.918Z,74.79
2017-10-26T02:27:33.538Z,74.71
2017-10-26T02:30:13.026Z,74.13
2017-10-26T02:32:41.482Z,74.55
2017-10-26T02:35:09.159Z,75.20
2017-10-26T02:37:36.831Z,75.09
2017-10-26T02:40:04.499Z,74.78
2017-10-26T02:42:32.809Z,74.64
2017-10-26T02:45:00.667Z,74.68
2017-10-26T02:47:28.384Z,74.62
2017-10-26T02:49:56.370Z,74.35
2017-10-26T02:52:24.160Z,74.54
2017-10-26T02:54:51.868Z,74.19
2017-10-26T02:57:20.758Z,74.10
2017-10-26T02:59:48.480Z,74.07
2017-10-26T03:02:16.110Z,73.59
2017-10-26T03:04:43.643Z,73.59
2017-10-26T03:07:12.319Z,73.52
2017-10-26T03:09:39.942Z,73.48
2017-10-26T03:12:07.536Z,73.33
2017-10-26T03:14:35.133Z,73.63
2017-10-26T03:17:02.760Z,73.87
2017-10-26T03:19:30.358Z,72.43
2017-10-26T03:21:57.922Z,73.66
2017-10-26T03:24:25.535Z,73.40
2017-10-26T03:26:54.359Z,73.80
2017-10-26T03:29:21.910Z,73.81
2017-10-26T03:31:50.341Z,74.14
2017-10-26T03:34:18.355Z,73.54
2017-10-26T03:36:46.128Z,73.88
2017-10-26T03:39:13.841Z,74.24
2017-10-26T03:41:42.167Z,74.31
2017-10-26T03:44:09.921Z,74.44
2017-10-26T03:46:37.524Z,73.75
2017-10-26T03:49:05.318Z,72.84
2017-10-26T03:51:32.992Z,72.79
2017-10-26T03:54:00.913Z,73.23
2017-10-26T03:56:28.966Z,73.79
2017-10-26T03:58:56.758Z,73.79
2017-10-26T04:01:24.402Z,73.83
2017-10-26T04:03:52.248Z,73.60
2017-10-26T04:06:19.830Z,73.29
2017-10-26T04:08:47.415Z,72.27
2017-10-26T04:11:15.020Z,72.72
2017-10-26T04:13:42.834Z,72.88
2017-10-26T04:16:10.754Z,73.13
2017-10-26T04:18:38.346Z,73.38
2017-10-26T04:21:06.134Z,72.69
2017-10-26T04:23:33.741Z,72.54
2017-10-26T04:26:02.342Z,72.92
2017-10-26T04:28:30.399Z,73.19
2017-10-26T04:30:58.054Z,73.57
2017-10-26T04:33:27.174Z,73.78
2017-10-26T04:35:54.803Z,73.78
2017-10-26T04:38:22.562Z,73.51
2017-10-26T04:40:50.346Z,73.53
2017-10-26T04:43:18.196Z,73.44
2017-10-26T04:45:45.813Z,82.64
2017-10-26T04:48:13.427Z,72.02
2017-10-26T04:50:40.968Z,72.21
2017-10-26T04:53:08.572Z,72.35
2017-10-26T04:55:36.398Z,72.51
2017-10-26T04:58:04.182Z,86.12
2017-10-26T05:00:31.783Z,92.48
2017-10-26T05:02:59.423Z,69.55
2017-10-26T05:05:26.993Z,69.46
2017-10-26T05:07:54.637Z,69.11
2017-10-26T05:10:22.218Z,69.56
2017-10-26T05:12:49.748Z,69.26
2017-10-26T05:15:17.367Z,69.71
2017-10-26T05:17:44.884Z,69.74
2017-10-26T05:20:12.639Z,70.29
2017-10-26T05:22:40.231Z,70.97
2017-10-26T05:25:07.764Z,71.19
2017-10-26T05:27:35.530Z,71.13
2017-10-26T05:30:06.457Z,71.04
2017-10-26T05:32:34.296Z,71.29
2017-10-26T05:35:01.961Z,71.23
2017-10-26T05:37:29.558Z,70.74
2017-10-26T05:39:57.202Z,71.66
2017-10-26T05:42:24.983Z,71.67
2017-10-26T05:44:52.594Z,72.05
2017-10-26T05:47:20.385Z,71.96
2017-10-26T05:49:47.979Z,71.71
2017-10-26T05:52:15.560Z,71.61
2017-10-26T05:54:43.147Z,71.31
2017-10-26T05:57:10.903Z,71.42
2017-10-26T05:59:38.506Z,71.50
2017-10-26T06:02:06.135Z,72.08
2017-10-26T06:04:33.738Z,71.09
2017-10-26T06:07:01.508Z,71.72
2017-10-26T06:09:29.107Z,72.28
2017-10-26T06:11:56.875Z,72.09
2017-10-26T06:14:24.681Z,71.12
2017-10-26T06:16:52.285Z,71.24
2017-10-26T06:19:20.044Z,72.44
2017-10-26T06:21:47.608Z,72.18
2017-10-26T06:24:15.536Z,72.24
2017-10-26T06:26:43.317Z,71.33
2017-10-26T06:29:11.059Z,70.83
2017-10-26T06:31:38.698Z,70.20
2017-10-26T06:34:06.523Z,71.40
2017-10-26T06:36:34.433Z,73.24
2017-10-26T06:39:02.077Z,72.25
2017-10-26T06:41:29.656Z,71.54
2017-10-26T06:43:57.273Z,73.57
2017-10-26T06:46:24.983Z,72.61
2017-10-26T06:48:52.520Z,71.78
2017-10-26T06:51:20.109Z,72.31
2017-10-26T06:53:47.724Z,72.77
2017-10-26T06:56:15.567Z,72.28
2017-10-26T06:58:43.349Z,72.14
2017-10-26T07:01:10.958Z,71.82
2017-10-26T07:03:38.574Z,71.58
2017-10-26T07:06:06.314Z,70.90
2017-10-26T07:08:33.980Z,70.46
2017-10-26T07:11:01.808Z,69.52
2017-10-26T07:13:29.572Z,69.85
2017-10-26T07:15:57.228Z,69.35
2017-10-26T07:18:25.017Z,68.63
2017-10-26T07:20:52.789Z,68.52
2017-10-26T07:23:20.377Z,68.24
2017-10-26T07:25:48.124Z,69.74
2017-10-26T07:28:15.885Z,70.89
2017-10-26T07:30:43.575Z,70.70
2017-10-26T07:33:11.190Z,69.07
2017-10-26T07:35:38.798Z,69.43
2017-10-26T07:38:06.410Z,69.50
2017-10-26T07:40:34.203Z,68.80
2017-10-26T07:43:02.352Z,68.40
2017-10-26T07:45:30.170Z,68.44
2017-10-26T07:47:57.935Z,68.77
2017-10-26T07:50:25.513Z,68.35
2017-10-26T07:52:53.142Z,68.90
2017-10-26T07:55:20.722Z,68.54
2017-10-26T07:57:48.337Z,68.96
2017-10-26T08:00:15.969Z,68.41
2017-10-26T08:02:43.549Z,67.99
2017-10-26T08:05:11.099Z,68.56
2017-10-26T08:07:38.695Z,67.77
2017-10-26T08:10:06.257Z,68.10
2017-10-26T08:12:33.852Z,67.90
2017-10-26T08:15:01.659Z,68.01
2017-10-26T08:17:29.175Z,67.70
2017-10-26T08:19:56.966Z,67.23
2017-10-26T08:22:24.578Z,66.57
2017-10-26T08:24:52.122Z,66.43
2017-10-26T08:27:19.696Z,67.31
2017-10-26T08:29:47.344Z,67.52
2017-10-26T08:32:14.963Z,66.89
2017-10-26T08:34:42.575Z,66.95
2017-10-26T08:37:10.381Z,66.44
2017-10-26T08:39:37.966Z,66.33
2017-10-26T08:42:05.557Z,65.24
2017-10-26T08:44:33.087Z,65.09
2017-10-26T08:47:00.654Z,65.50
2017-10-26T08:49:28.451Z,66.18
2017-10-26T08:54:23.097Z,66.05
2017-10-26T08:56:50.928Z,65.41
2017-10-26T08:59:18.586Z,64.79
2017-10-26T09:01:46.203Z,64.49
2017-10-26T09:04:13.799Z,63.93
2017-10-26T09:06:42.330Z,62.51
2017-10-26T09:09:09.937Z,62.86
2017-10-26T09:11:37.509Z,61.36
2017-10-26T09:14:05.120Z,58.50
2017-10-26T09:16:32.769Z,55.93
2017-10-26T09:19:00.455Z,53.38
2017-10-26T09:21:28.071Z,52.07
2017-10-26T09:23:55.705Z,50.54
2017-10-26T09:26:23.308Z,49.34
2017-10-26T09:28:50.902Z,50.52
2017-10-26T09:31:18.524Z,49.55
2017-10-26T09:33:46.159Z,47.58
2017-10-26T09:36:13.743Z,47.56
2017-10-26T09:38:41.330Z,48.78
2017-10-26T09:41:08.935Z,46.28
2017-10-26T09:43:36.531Z,45.85
2017-10-26T09:46:04.179Z,45.81
2017-10-26T09:48:31.759Z,46.14
2017-10-26T09:50:59.351Z,44.79
2017-10-26T09:53:27.027Z,44.01
2017-10-26T09:55:54.614Z,43.46
2017-10-26T09:58:22.219Z,42.76
2017-10-26T10:00:49.846Z,43.42
2017-10-26T10:03:17.430Z,43.45
2017-10-26T10:05:45.191Z,43.46
2017-10-26T10:08:12.803Z,42.91
2017-10-26T10:10:40.566Z,43.24
2017-10-26T10:13:08.185Z,44.45
2017-10-26T10:15:35.794Z,43.64
2017-10-26T10:18:03.417Z,44.22
2017-10-26T10:20:31.079Z,43.77
2017-10-26T10:22:58.687Z,43.50
2017-10-26T10:25:26.247Z,43.96
2017-10-26T10:27:53.878Z,43.70
2017-10-26T10:30:21.507Z,44.23
2017-10-26T10:32:49.130Z,44.70
2017-10-26T10:35:16.673Z,44.36
2017-10-26T10:37:44.266Z,45.13
2017-10-26T10:40:11.870Z,45.19
2017-10-26T10:42:39.437Z,44.96
2017-10-26T10:45:07.079Z,46.12
2017-10-26T10:47:34.729Z,45.96
2017-10-26T10:50:02.290Z,46.85
2017-10-26T10:52:29.977Z,46.14
2017-10-26T10:54:57.589Z,46.24
2017-10-26T10:57:25.213Z,46.91
2017-10-26T10:59:58.433Z,46.68
2017-10-26T11:02:26.063Z,47.05
2017-10-26T11:04:53.653Z,47.00
2017-10-26T11:07:21.205Z,46.94
2017-10-26T11:09:48.817Z,46.30
2017-10-26T11:12:16.396Z,46.34
2017-10-26T11:14:43.993Z,46.63
2017-10-26T11:17:11.615Z,46.88
2017-10-26T11:19:39.266Z,46.60
2017-10-26T11:22:07.126Z,46.23
2017-10-26T11:24:34.898Z,45.43
2017-10-26T11:27:03.178Z,45.81
2017-10-26T11:29:30.761Z,45.15
2017-10-26T11:31:58.488Z,45.19
2017-10-26T11:34:26.310Z,45.31
2017-10-26T11:36:54.032Z,45.95
2017-10-26T11:39:21.686Z,46.16
2017-10-26T11:41:49.294Z,46.20
2017-10-26T11:44:16.981Z,46.37
2017-10-26T11:46:44.755Z,47.03
2017-10-26T11:49:12.414Z,47.02
2017-10-26T11:51:39.997Z,47.49
2017-10-26T11:54:07.594Z,46.80
2017-10-26T11:56:35.213Z,46.86
2017-10-26T11:59:03.086Z,47.09
2017-10-26T12:01:30.762Z,47.16
2017-10-26T12:03:58.381Z,47.33
2017-10-26T12:06:26.047Z,46.92
2017-10-26T12:08:53.779Z,46.27
2017-10-26T12:11:21.356Z,46.20
2017-10-26T12:13:48.955Z,45.56
2017-10-26T12:16:16.542Z,45.75
2017-10-26T12:18:44.170Z,45.51
2017-10-26T12:21:11.761Z,45.39
2017-10-26T12:23:39.415Z,45.40
2017-10-26T12:26:07.040Z,45.52
2017-10-26T12:28:34.577Z,45.73
2017-10-26T12:31:02.258Z,45.86
2017-10-26T12:33:29.812Z,46.41
2017-10-26T12:35:57.458Z,45.73
2017-10-26T12:38:25.102Z,48.55
2017-10-26T12:40:52.774Z,50.18
2017-10-26T12:43:20.621Z,48.27
2017-10-26T12:45:48.207Z,50.14
2017-10-26T12:48:15.945Z,48.57
2017-10-26T12:50:43.538Z,49.29
2017-10-26T12:53:11.156Z,48.42
2017-10-26T12:55:38.839Z,49.77
2017-10-26T12:58:06.666Z,47.90
2017-10-26T13:00:34.344Z,47.78
2017-10-26T13:03:02.472Z,49.70
2017-10-26T13:05:30.420Z,48.38
2017-10-26T13:07:58.187Z,47.17
2017-10-26T13:10:25.968Z,47.53
2017-10-26T13:12:53.752Z,48.26
2017-10-26T13:15:21.426Z,47.74
2017-10-26T13:17:49.859Z,46.76
2017-10-26T13:20:17.411Z,47.97
2017-10-26T13:22:45.066Z,48.67
2017-10-26T13:25:12.842Z,48.52
2017-10-26T13:27:40.474Z,49.30
2017-10-26T13:30:08.123Z,49.00
2017-10-26T13:32:35.657Z,49.76
2017-10-26T13:35:04.462Z,49.63
2017-10-26T13:37:32.042Z,51.02
2017-10-26T13:39:59.635Z,50.37
2017-10-26T13:42:27.273Z,50.12
2017-10-26T13:44:54.842Z,49.42
2017-10-26T13:47:22.390Z,49.82
2017-10-26T13:49:50.266Z,50.34
2017-10-26T13:52:17.883Z,50.70
2017-10-26T13:54:45.444Z,50.91
2017-10-26T13:57:13.020Z,50.83
2017-10-26T13:59:41.268Z,52.63
2017-10-26T14:02:08.964Z,50.98
2017-10-26T14:04:36.556Z,51.14
2017-10-26T14:07:04.094Z,49.77
2017-10-26T14:09:31.719Z,48.69
2017-10-26T14:11:59.367Z,47.94
2017-10-26T14:14:26.896Z,48.20
2017-10-26T14:16:54.526Z,48.20
2017-10-26T14:19:22.115Z,47.74
2017-10-26T14:21:49.849Z,48.30
2017-10-26T14:24:17.543Z,47.77
2017-10-26T14:26:45.154Z,47.74
2017-10-26T14:29:12.739Z,48.28
2017-10-26T14:31:40.317Z,48.46
2017-10-26T14:34:07.860Z,48.94
2017-10-26T14:36:35.390Z,49.00
2017-10-26T14:39:03.087Z,49.17
2017-10-26T14:41:30.597Z,49.55
2017-10-26T14:43:58.234Z,49.68
2017-10-26T14:46:25.851Z,49.64
2017-10-26T14:48:53.422Z,49.58
2017-10-26T14:51:20.981Z,49.81
2017-10-26T14:53:48.629Z,49.90
2017-10-26T14:56:16.226Z,49.82
2017-10-26T14:58:43.771Z,50.42
2017-10-26T15:01:11.406Z,50.49
2017-10-26T15:03:38.950Z,50.07
2017-10-26T15:06:06.501Z,50.14
2017-10-26T15:08:34.073Z,50.28
2017-10-26T15:11:01.695Z,50.26
2017-10-26T15:13:29.433Z,50.23
2017-10-26T15:15:57.023Z,50.46
2017-10-26T15:18:24.911Z,50.63
2017-10-26T15:20:52.466Z,50.99
2017-10-26T15:23:20.041Z,51.49
2017-10-26T15:25:47.575Z,51.39
2017-10-26T15:28:15.908Z,51.84
2017-10-26T15:30:43.547Z,52.09
2017-10-26T15:33:11.082Z,52.27
2017-10-26T15:35:38.633Z,52.71
2017-10-26T15:38:06.273Z,53.08
2017-10-26T15:40:33.798Z,53.36
2017-10-26T15:43:01.341Z,53.71
2017-10-26T15:45:28.921Z,54.09
2017-10-26T15:47:56.447Z,54.71
2017-10-26T15:50:24.183Z,54.96
2017-10-26T15:52:51.737Z,55.31
2017-10-26T15:55:19.443Z,55.25
2017-10-26T15:57:46.966Z,55.32
2017-10-26T16:00:14.674Z,55.67
2017-10-26T16:02:42.211Z,55.20
2017-10-26T16:05:09.825Z,55.03
2017-10-26T16:07:37.455Z,55.77
2017-10-26T16:10:08.327Z,56.06
2017-10-26T16:12:35.911Z,56.07
2017-10-26T16:15:03.575Z,56.10
2017-10-26T16:17:31.151Z,56.22
2017-10-26T16:19:58.751Z,56.72
2017-10-26T16:22:26.414Z,56.44
2017-10-26T16:24:54.072Z,56.85
2017-10-26T16:27:21.649Z,57.00
2017-10-26T16:29:49.298Z,56.93
2017-10-26T16:32:16.919Z,56.99
2017-10-26T16:34:44.495Z,57.19
2017-10-26T16:37:12.420Z,57.24
2017-10-26T16:39:40.067Z,57.22
2017-10-26T16:42:07.695Z,57.44
2017-10-26T16:44:35.459Z,57.46
2017-10-26T16:47:03.153Z,57.79
2017-10-26T16:49:30.704Z,57.73
2017-10-26T16:51:58.474Z,57.83
2017-10-26T16:54:26.197Z,57.90
2017-10-26T16:56:53.784Z,57.75
2017-10-26T16:59:21.387Z,57.92
2017-10-26T17:01:48.962Z,58.00
2017-10-26T17:04:16.738Z,58.00
2017-10-26T17:06:44.283Z,58.23
2017-10-26T17:09:11.878Z,58.24
2017-10-26T17:11:39.545Z,58.11
2017-10-26T17:14:07.102Z,58.09
2017-10-26T17:16:34.693Z,58.13
2017-10-26T17:19:02.293Z,58.33
2017-10-26T17:21:30.059Z,58.63
2017-10-26T17:23:57.644Z,58.94
2017-10-26T17:26:25.231Z,59.21
2017-10-26T17:28:52.848Z,59.19
2017-10-26T17:31:20.487Z,59.46
2017-10-26T17:33:48.152Z,59.21
2017-10-26T17:36:15.787Z,59.18
2017-10-26T17:38:43.431Z,59.48
2017-10-26T17:41:10.999Z,58.94
2017-10-26T17:43:38.750Z,58.37
2017-10-26T17:46:06.470Z,57.71
2017-10-26T17:48:34.029Z,57.57
2017-10-26T17:51:01.626Z,56.98
2017-10-26T17:53:29.253Z,56.71
2017-10-26T17:55:56.852Z,56.68
2017-10-26T17:58:24.396Z,56.74
2017-10-26T18:00:51.996Z,56.97
2017-10-26T18:03:19.956Z,56.88
2017-10-26T18:05:47.528Z,56.71
2017-10-26T18:08:16.094Z,56.81
2017-10-26T18:10:43.670Z,56.81
2017-10-26T18:13:11.235Z,56.61
2017-10-26T18:15:38.904Z,56.35
2017-10-26T18:18:06.530Z,56.52
2017-10-26T18:20:34.159Z,56.37
2017-10-26T18:23:01.776Z,56.37
2017-10-26T18:25:29.570Z,56.83
2017-10-26T18:27:57.150Z,57.18
2017-10-26T18:30:24.822Z,57.41
2017-10-26T18:32:52.413Z,57.42
2017-10-26T18:35:19.980Z,57.67
2017-10-26T18:37:47.609Z,57.50
2017-10-26T18:40:15.398Z,57.46
2017-10-26T18:42:43.189Z,57.26
2017-10-26T18:45:10.896Z,57.33
2017-10-26T18:47:38.759Z,57.68
2017-10-26T18:50:06.355Z,57.84
2017-10-26T18:52:34.007Z,58.22
2017-10-26T18:55:01.585Z,58.35
2017-10-26T18:57:29.142Z,58.51
2017-10-26T18:59:59.831Z,58.37
2017-10-26T19:02:30.999Z,58.25
2017-10-26T19:05:03.047Z,58.22
2017-10-26T19:07:50.867Z,58.24
2017-10-26T19:13:04.066Z,57.94
2017-10-26T19:15:31.695Z,58.19
2017-10-26T19:17:59.279Z,58.74
2017-10-26T19:20:26.902Z,59.27
2017-10-26T19:22:54.653Z,59.64
2017-10-26T19:25:22.218Z,59.43
2017-10-26T19:27:50.613Z,59.76
2017-10-26T19:30:18.193Z,59.65
2017-10-26T19:32:45.711Z,60.12
2017-10-26T19:35:13.240Z,60.28
2017-10-26T19:37:40.818Z,59.90
2017-10-26T19:40:08.523Z,60.08
2017-10-26T19:42:36.095Z,60.15
2017-10-26T19:45:04.390Z,60.00
2017-10-26T19:47:31.982Z,59.85
2017-10-26T19:49:59.540Z,59.73
2017-10-26T19:52:27.135Z,59.33
2017-10-26T19:54:54.729Z,59.79
2017-10-26T19:57:22.298Z,59.79
2017-10-26T19:59:49.903Z,60.01
2017-10-26T20:02:17.487Z,59.87
2017-10-26T20:04:45.020Z,59.49
2017-10-26T20:07:12.570Z,59.43
2017-10-26T20:09:40.174Z,59.88
2017-10-26T20:12:07.769Z,60.76
2017-10-26T20:14:35.384Z,61.05
2017-10-26T20:17:03.001Z,61.73
2017-10-26T20:19:30.535Z,62.15
2017-10-26T20:21:58.121Z,62.39
2017-10-26T20:24:25.688Z,62.63
2017-10-26T20:26:53.226Z,62.71
2017-10-26T20:29:20.836Z,61.46
2017-10-26T20:31:48.405Z,61.22
2017-10-26T20:34:16.835Z,61.64
2017-10-26T20:36:44.696Z,61.78
2017-10-26T20:39:12.365Z,62.78
2017-10-26T20:41:39.939Z,62.47
2017-10-26T20:44:07.467Z,64.99
2017-10-26T20:46:35.064Z,64.82
2017-10-26T20:49:08.227Z,63.55
2017-10-26T20:51:41.524Z,63.55
2017-10-26T20:54:14.612Z,64.45
2017-10-26T20:56:47.758Z,64.79
2017-10-26T20:59:20.941Z,63.80
2017-10-26T21:01:54.228Z,63.33
2017-10-26T21:04:27.414Z,64.53
2017-10-26T21:06:55.075Z,63.89
2017-10-26T21:09:25.549Z,64.15
2017-10-26T21:11:58.668Z,63.50
2017-10-26T21:14:31.054Z,63.38
2017-10-26T21:17:00.304Z,62.74
2017-10-26T21:19:28.110Z,66.80
2017-10-26T21:21:56.235Z,65.75
2017-10-26T21:24:24.251Z,65.39
2017-10-26T21:26:53.114Z,65.59
2017-10-26T21:29:20.993Z,65.64
2017-10-26T21:31:51.722Z,66.78
2017-10-26T21:34:20.613Z,66.02
2017-10-26T21:36:48.366Z,66.88
2017-10-26T21:39:16.552Z,66.35
2017-10-26T21:41:46.070Z,67.05
2017-10-26T21:44:14.481Z,66.53
2017-10-26T21:46:46.967Z,66.11
2017-10-26T21:49:14.607Z,66.02
2017-10-26T21:51:43.867Z,66.60
2017-10-26T21:54:11.500Z,66.21
2017-10-26T21:56:39.135Z,65.15
2017-10-26T21:59:06.746Z,65.56
2017-10-26T22:01:34.407Z,66.54
2017-10-26T22:04:01.963Z,66.18
2017-10-26T22:06:29.498Z,66.04
2017-10-26T22:08:57.063Z,66.42
2017-10-26T22:11:24.665Z,66.95
2017-10-26T22:13:52.231Z,67.16
2017-10-26T22:16:19.871Z,66.75
2017-10-26T22:18:47.404Z,67.14
2017-10-26T22:21:15.109Z,67.28
2017-10-26T22:23:42.803Z,66.15
2017-10-26T22:26:11.551Z,65.84
2017-10-26T22:28:39.302Z,66.51
2017-10-26T22:31:06.922Z,66.23
2017-10-26T22:33:34.736Z,67.17
2017-10-26T22:36:02.355Z,67.16
2017-10-26T22:38:29.964Z,67.63
2017-10-26T22:40:57.476Z,68.32
2017-10-26T22:43:25.064Z,68.23
2017-10-26T22:45:52.721Z,66.56
2017-10-26T22:48:20.309Z,66.91
2017-10-26T22:50:47.953Z,68.63
2017-10-26T22:53:15.563Z,66.75
2017-10-26T22:58:10.014Z,67.54
2017-10-26T23:00:37.594Z,67.71
2017-10-26T23:03:05.134Z,67.93
2017-10-26T23:05:32.739Z,69.17
2017-10-26T23:08:00.443Z,68.01
2017-10-26T23:10:27.972Z,68.16
2017-10-26T23:12:55.520Z,68.62
2017-10-26T23:15:23.119Z,69.07
2017-10-26T23:17:50.729Z,69.12
2017-10-26T23:20:19.519Z,69.34
2017-10-26T23:22:47.095Z,70.58
2017-10-26T23:25:14.893Z,70.34
2017-10-26T23:27:42.461Z,69.72
2017-10-26T23:30:10.086Z,70.27
2017-10-26T23:32:37.608Z,70.69
2017-10-26T23:35:05.406Z,70.59
2017-10-26T23:37:33.006Z,71.08
2017-10-26T23:40:00.544Z,70.98
2017-10-26T23:42:28.171Z,71.06
2017-10-26T23:44:55.752Z,71.93
2017-10-26T23:47:23.331Z,71.57
2017-10-26T23:49:50.989Z,71.14
2017-10-26T23:52:18.634Z,70.82
2017-10-26T23:54:46.214Z,71.18
2017-10-26T23:57:14.130Z,70.77
2017-10-26T23:59:41.771Z,71.36
